Terminal Aerodrome Forecast
Issued by NWS Jackson, MS

Home | Current Version | Previous Version | Text Only | Print | Product List | Glossary On
Versions: 1 2 3 4 5 6 7 8 9 10 11 12 13 14 15 16 17
000
FTUS44 KJAN 281855 AAA
TAFMEI
TAF AMD
KMEI 281855Z 2819/2918 24018G31KT 1 1/2SM -TSRA VCTS FEW028
      SCT040CB BKN060
     FM281920 22007KT P6SM VCTS SCT030CB BKN070
     FM290200 19003KT 6SM BR SCT025 BKN100
     FM291000 00000KT 4SM BR BKN025
     FM291400 25008KT P6SM SCT025 BKN100=

USA.gov is the U.S. government's official web portal to all federal, state and local government web resources and services.